Time;durP1;ratioP1;P1;durP2;ratioP2;P2;SDS_P1;SDS_P2;PMS_P1;PMS_P2;Temp;Humidity;BMP_temperature;BMP_pressure;BME280_temperature;BME280_humidity;BME280_pressure;Samples;Min_cycle;Max_cycle;Signal;HPM_P1;HPM_P2
2021/12/20 00:00:25;;;;;;;;;;;;;;;0.36;100.00;92604.34;5091190;28;20290;-84
2021/12/20 00:02:53;;;;;;;;;;;;;;;0.38;100.00;92605.75;5091195;28;20313;-84
2021/12/20 00:05:21;;;;;;;;;;;;;;;0.36;100.00;92592.50;5091281;28;19935;-83
2021/12/20 00:07:48;;;;;;;;;;;;;;;0.37;100.00;92611.00;5093762;28;19935;-84
2021/12/20 00:10:14;;;;;;;;;;;;;;;0.40;100.00;92608.13;5095331;28;20370;-84
2021/12/20 00:12:41;;;;;;;;;;;;;;;-0.21;100.00;92624.50;5095484;28;19928;-83
2021/12/20 00:15:08;;;;;;;;;;;;;;;-0.06;100.00;92622.09;5109013;28;19969;-84
2021/12/20 00:17:34;;;;;;;;;;;;;;;0.02;100.00;92623.03;5114157;28;19928;-83
2021/12/20 00:20:01;;;;;;;;;;;;;;;-0.02;100.00;92613.28;5115531;28;19931;-84
2021/12/20 00:22:29;;;;;;;;;;;;;;;0.14;100.00;92616.72;5115262;28;19927;-84
2021/12/20 00:24:56;;;;;;;;;;;;;;;0.23;100.00;92618.28;5115483;28;19973;-85
2021/12/20 00:27:22;;;;;;;;;;;;;;;0.30;100.00;92610.03;5115540;28;19924;-84
2021/12/20 00:29:49;;;;;;;;;;;;;;;0.36;100.00;92617.78;5115497;28;20271;-84
2021/12/20 00:32:16;;;;;;;;;;;;;;;0.43;100.00;92615.41;5115228;28;20270;-84
2021/12/20 00:34:42;;;;;;;;;;;;;;;0.46;100.00;92612.53;5115412;28;19927;-84
2021/12/20 00:40:20;;;;;;;;;;;;;;;0.48;100.00;92613.19;5115246;28;19976;-84
2021/12/20 00:42:42;;;;;;;;;;;;;;;0.45;100.00;92621.06;5115204;28;19969;-83
2021/12/20 00:45:09;;;;;;;;;;;;;;;0.48;100.00;92620.75;5115120;28;19928;-83
2021/12/20 00:47:36;;;;;;;;;;;;;;;0.49;100.00;92624.06;5115228;28;19973;-83
2021/12/20 00:50:02;;;;;;;;;;;;;;;0.50;100.00;92618.84;5115058;28;19924;-82
2021/12/20 00:52:34;;;;;;;;;;;;;;;0.56;100.00;92621.69;5115126;28;19923;-83
2021/12/20 00:55:02;;;;;;;;;;;;;;;0.58;100.00;92619.75;5114916;28;19932;-83
2021/12/20 00:57:29;;;;;;;;;;;;;;;0.62;100.00;92611.72;5114945;28;19927;-82
2021/12/20 00:59:55;;;;;;;;;;;;;;;0.67;100.00;92613.72;5115117;28;19993;-83
2021/12/20 01:02:22;;;;;;;;;;;;;;;0.64;100.00;92599.69;5114752;28;20323;-82
2021/12/20 01:04:48;;;;;;;;;;;;;;;0.51;100.00;92604.47;5114723;28;19924;-84
2021/12/20 01:07:15;;;;;;;;;;;;;;;0.65;100.00;92593.66;5114709;28;19924;-83
2021/12/20 01:09:41;;;;;;;;;;;;;;;0.68;100.00;92605.19;5114567;28;19969;-83
2021/12/20 01:12:16;;;;;;;;;;;;;;;0.76;100.00;92606.91;5114939;28;19928;-83
2021/12/20 01:14:43;;;;;;;;;;;;;;;0.76;100.00;92611.97;5114620;28;20534;-83
2021/12/20 01:17:10;;;;;;;;;;;;;;;0.79;100.00;92604.06;5114703;28;19930;-83
2021/12/20 01:19:37;;;;;;;;;;;;;;;0.88;100.00;92610.63;5114391;28;20685;-83
2021/12/20 01:22:05;;;;;;;;;;;;;;;0.94;100.00;92606.69;5114397;28;19924;-83
2021/12/20 01:24:32;;;;;;;;;;;;;;;0.88;100.00;92610.63;5114237;28;19928;-84
2021/12/20 01:26:58;;;;;;;;;;;;;;;0.90;100.00;92597.84;5114526;28;19927;-83
2021/12/20 01:29:26;;;;;;;;;;;;;;;0.89;100.00;92601.31;5114587;28;20352;-83
2021/12/20 01:31:53;;;;;;;;;;;;;;;0.80;100.00;92613.22;5114406;28;20036;-84
2021/12/20 01:34:19;;;;;;;;;;;;;;;0.88;100.00;92612.41;5114585;28;19927;-83
2021/12/20 01:36:46;;;;;;;;;;;;;;;0.97;100.00;92605.56;5114477;28;20290;-83
2021/12/20 01:39:13;;;;;;;;;;;;;;;1.05;100.00;92608.03;5114074;28;19931;-83
2021/12/20 01:41:45;;;;;;;;;;;;;;;1.09;100.00;92603.41;5114052;28;19924;-84
2021/12/20 01:44:14;;;;;;;;;;;;;;;1.05;100.00;92600.44;5113907;28;20393;-83
2021/12/20 01:46:42;;;;;;;;;;;;;;;1.12;100.00;92593.78;5113871;28;20435;-83
2021/12/20 01:49:11;;;;;;;;;;;;;;;1.17;100.00;92599.09;5113773;28;20400;-85
2021/12/20 01:51:49;;;;;;;;;;;;;;;1.14;100.00;92599.44;5113726;28;19985;-84
2021/12/20 01:54:16;;;;;;;;;;;;;;;1.20;100.00;92597.97;5113850;28;20329;-84
2021/12/20 01:56:44;;;;;;;;;;;;;;;1.22;100.00;92596.09;5113871;28;20270;-83
2021/12/20 01:59:13;;;;;;;;;;;;;;;1.16;100.00;92600.06;5113036;28;20266;-83
2021/12/20 02:01:41;;;;;;;;;;;;;;;1.24;100.00;92591.63;5113728;28;19977;-82
2021/12/20 02:04:10;;;;;;;;;;;;;;;1.24;100.00;92588.34;5113747;28;20446;-83
2021/12/20 02:06:39;;;;;;;;;;;;;;;1.25;100.00;92590.69;5113532;28;19924;-82
2021/12/20 02:09:06;;;;;;;;;;;;;;;1.23;100.00;92595.13;5113572;28;20015;-83
2021/12/20 02:11:33;;;;;;;;;;;;;;;1.17;100.00;92585.69;5113636;28;19924;-83
2021/12/20 02:13:59;;;;;;;;;;;;;;;1.19;100.00;92592.16;5113479;28;19932;-83
2021/12/20 02:16:26;;;;;;;;;;;;;;;1.18;100.00;92590.59;5113130;28;19977;-83
2021/12/20 02:18:53;;;;;;;;;;;;;;;1.19;100.00;92582.03;5113348;28;20426;-83
2021/12/20 02:21:21;;;;;;;;;;;;;;;1.16;100.00;92586.66;5113291;28;19984;-83
2021/12/20 02:23:48;;;;;;;;;;;;;;;1.14;100.00;92586.00;5113352;28;20286;-82
2021/12/20 02:26:18;;;;;;;;;;;;;;;1.04;100.00;92588.75;5113305;28;19924;-82
2021/12/20 02:28:47;;;;;;;;;;;;;;;0.95;100.00;92579.63;5112961;28;19931;-83
2021/12/20 02:39:27;;;;;;;;;;;;;;;0.59;100.00;92579.16;5113019;28;19935;-83
2021/12/20 02:41:54;;;;;;;;;;;;;;;0.61;100.00;92587.34;5113155;28;19924;-82
2021/12/20 02:44:23;;;;;;;;;;;;;;;0.64;100.00;92593.81;5112904;28;19935;-82
2021/12/20 02:46:52;;;;;;;;;;;;;;;0.70;100.00;92587.34;5112842;28;19930;-82
2021/12/20 02:49:23;;;;;;;;;;;;;;;0.73;100.00;92592.84;5112490;28;19930;-83
2021/12/20 02:51:59;;;;;;;;;;;;;;;0.74;100.00;92603.75;5112265;28;19930;-83
2021/12/20 02:54:25;;;;;;;;;;;;;;;0.79;100.00;92611.66;5112873;28;20294;-83
2021/12/20 02:56:52;;;;;;;;;;;;;;;0.84;100.00;92609.41;5112600;28;20394;-84
2021/12/20 02:59:19;;;;;;;;;;;;;;;0.91;100.00;92591.81;5112487;28;20320;-83
2021/12/20 03:01:46;;;;;;;;;;;;;;;1.05;100.00;92593.66;5112616;28;20275;-83
2021/12/20 03:04:13;;;;;;;;;;;;;;;1.17;100.00;92596.56;5112536;28;20282;-83
2021/12/20 03:06:41;;;;;;;;;;;;;;;1.10;100.00;92590.63;5112333;28;20393;-83
2021/12/20 03:09:11;;;;;;;;;;;;;;;1.13;100.00;92592.81;5112157;28;19924;-84
2021/12/20 03:11:37;;;;;;;;;;;;;;;1.22;100.00;92573.31;5112432;28;20018;-83
2021/12/20 03:14:14;;;;;;;;;;;;;;;1.14;100.00;92580.94;5112443;28;19924;-83
2021/12/20 03:16:41;;;;;;;;;;;;;;;0.90;100.00;92593.56;5112275;28;20298;-83
2021/12/20 03:19:07;;;;;;;;;;;;;;;1.00;100.00;92572.34;5112171;28;19989;-83
2021/12/20 03:21:34;;;;;;;;;;;;;;;1.12;100.00;92583.66;5112175;28;19927;-84
2021/12/20 03:24:01;;;;;;;;;;;;;;;1.18;100.00;92587.25;5112108;28;20382;-83
2021/12/20 03:26:29;;;;;;;;;;;;;;;1.20;100.00;92580.28;5111949;28;20286;-84
2021/12/20 03:28:55;;;;;;;;;;;;;;;1.26;100.00;92581.34;5111964;28;19985;-84
2021/12/20 03:31:22;;;;;;;;;;;;;;;1.26;100.00;92578.81;5111906;28;19939;-83
2021/12/20 03:33:48;;;;;;;;;;;;;;;1.24;100.00;92584.06;5111938;28;19977;-83
2021/12/20 03:36:15;;;;;;;;;;;;;;;1.27;100.00;92593.84;5111756;28;19934;-83
2021/12/20 03:38:42;;;;;;;;;;;;;;;1.31;100.00;92590.00;5111843;28;19927;-85
2021/12/20 03:41:08;;;;;;;;;;;;;;;1.33;100.00;92597.44;5111048;28;19934;-84
2021/12/20 03:43:36;;;;;;;;;;;;;;;1.22;100.00;92595.28;5111776;28;19970;-85
2021/12/20 03:46:04;;;;;;;;;;;;;;;1.18;100.00;92593.13;5111621;28;19924;-84
2021/12/20 03:48:31;;;;;;;;;;;;;;;1.14;100.00;92591.06;5111897;28;19934;-84
2021/12/20 03:51:00;;;;;;;;;;;;;;;1.22;100.00;92587.69;5111731;28;19931;-84
2021/12/20 03:53:27;;;;;;;;;;;;;;;1.23;100.00;92587.53;5111677;28;20382;-84
2021/12/20 03:55:53;;;;;;;;;;;;;;;1.28;100.00;92597.94;5111640;28;19931;-84
2021/12/20 03:58:20;;;;;;;;;;;;;;;1.31;100.00;92590.00;5111697;28;19997;-84
2021/12/20 04:00:49;;;;;;;;;;;;;;;1.17;100.00;92594.03;5111610;28;19924;-85
2021/12/20 04:03:15;;;;;;;;;;;;;;;1.02;100.00;92593.19;5111825;28;19986;-83
2021/12/20 04:05:42;;;;;;;;;;;;;;;1.01;100.00;92601.72;5111582;28;19927;-84
2021/12/20 04:08:08;;;;;;;;;;;;;;;0.98;100.00;92600.34;5111500;28;19931;-85
2021/12/20 04:10:35;;;;;;;;;;;;;;;1.10;100.00;92592.38;5111599;28;19932;-83
2021/12/20 04:13:02;;;;;;;;;;;;;;;1.15;100.00;92598.50;5111482;28;19924;-84
2021/12/20 04:15:28;;;;;;;;;;;;;;;1.05;100.00;92601.25;5111797;28;19928;-84
2021/12/20 04:17:56;;;;;;;;;;;;;;;1.12;100.00;92610.69;5111493;28;19924;-84
2021/12/20 04:20:23;;;;;;;;;;;;;;;0.99;100.00;92619.63;5111586;28;19986;-85
2021/12/20 04:22:49;;;;;;;;;;;;;;;1.07;100.00;92623.84;5111298;28;20350;-84
2021/12/20 04:25:16;;;;;;;;;;;;;;;1.00;100.00;92616.13;5111424;28;20412;-85
2021/12/20 04:27:42;;;;;;;;;;;;;;;0.92;100.00;92619.47;5111179;28;19924;-84
2021/12/20 04:30:10;;;;;;;;;;;;;;;0.80;100.00;92620.81;5111334;28;19923;-84
2021/12/20 04:32:37;;;;;;;;;;;;;;;0.73;100.00;92627.44;5111342;28;19972;-84
2021/12/20 04:35:05;;;;;;;;;;;;;;;0.78;100.00;92628.53;5111452;28;19969;-83
2021/12/20 04:37:32;;;;;;;;;;;;;;;0.68;100.00;92624.66;5111387;28;19924;-84
2021/12/20 04:40:00;;;;;;;;;;;;;;;0.64;100.00;92619.09;5111393;28;19931;-87
2021/12/20 04:42:26;;;;;;;;;;;;;;;0.61;100.00;92630.31;5111289;28;19927;-85
2021/12/20 04:44:53;;;;;;;;;;;;;;;0.65;100.00;92630.81;5111399;28;19969;-84
2021/12/20 04:47:19;;;;;;;;;;;;;;;0.72;100.00;92629.19;5111234;28;19928;-84
2021/12/20 04:49:46;;;;;;;;;;;;;;;0.77;100.00;92621.13;5111256;28;19974;-84
2021/12/20 04:52:14;;;;;;;;;;;;;;;0.82;100.00;92623.16;5111018;28;19931;-85
2021/12/20 04:54:40;;;;;;;;;;;;;;;0.71;100.00;92631.88;5114996;28;19924;-84
2021/12/20 04:57:07;;;;;;;;;;;;;;;0.54;100.00;92637.00;5115282;28;19930;-85
2021/12/20 04:59:33;;;;;;;;;;;;;;;0.50;100.00;92641.59;5115127;28;19923;-84
2021/12/20 05:02:00;;;;;;;;;;;;;;;0.56;100.00;92641.91;5114878;28;19934;-84
2021/12/20 05:04:26;;;;;;;;;;;;;;;0.61;100.00;92642.97;5114952;28;19924;-84
2021/12/20 05:06:53;;;;;;;;;;;;;;;0.74;100.00;92639.16;5114702;28;20298;-84
2021/12/20 05:09:25;;;;;;;;;;;;;;;0.79;100.00;92647.03;5114519;28;19946;-84
2021/12/20 05:12:00;;;;;;;;;;;;;;;0.82;100.00;92645.94;5114570;28;19931;-84
2021/12/20 05:14:27;;;;;;;;;;;;;;;0.77;100.00;92652.25;5114677;28;20283;-84
2021/12/20 05:16:53;;;;;;;;;;;;;;;0.77;100.00;92661.56;5114668;28;19924;-84
2021/12/20 05:19:20;;;;;;;;;;;;;;;0.71;100.00;92668.06;5114446;28;19928;-83
2021/12/20 05:21:46;;;;;;;;;;;;;;;0.76;100.00;92667.59;5114434;28;19969;-84
2021/12/20 05:24:13;;;;;;;;;;;;;;;0.83;100.00;92671.03;5114566;28;19962;-85
2021/12/20 05:26:41;;;;;;;;;;;;;;;0.72;100.00;92674.69;5114612;28;20287;-85
2021/12/20 05:29:08;;;;;;;;;;;;;;;0.78;100.00;92676.56;5114405;28;20025;-85
2021/12/20 05:31:34;;;;;;;;;;;;;;;0.85;100.00;92668.34;5114366;28;19924;-84
2021/12/20 05:34:01;;;;;;;;;;;;;;;0.91;100.00;92677.78;5109950;28;19931;-85
2021/12/20 05:36:28;;;;;;;;;;;;;;;0.91;100.00;92677.78;5093813;28;20378;-84
2021/12/20 05:38:54;;;;;;;;;;;;;;;0.77;100.00;92686.84;5093714;28;19947;-83
2021/12/20 05:41:21;;;;;;;;;;;;;;;0.87;100.00;92674.00;5093695;28;20293;-84
2021/12/20 05:43:49;;;;;;;;;;;;;;;0.92;100.00;92675.13;5093741;28;19924;-84
2021/12/20 05:46:15;;;;;;;;;;;;;;;1.02;100.00;92682.50;5093651;28;20008;-84
2021/12/20 05:48:42;;;;;;;;;;;;;;;1.11;100.00;92685.00;5093551;28;19970;-84
2021/12/20 05:51:09;;;;;;;;;;;;;;;1.13;100.00;92703.31;5093563;28;19932;-84
2021/12/20 05:53:35;;;;;;;;;;;;;;;1.04;100.00;92694.97;5093385;28;19928;-84
2021/12/20 05:56:02;;;;;;;;;;;;;;;1.06;100.00;92698.13;5093417;28;20374;-84
2021/12/20 05:58:28;;;;;;;;;;;;;;;1.09;100.00;92699.53;5093189;28;20320;-84
2021/12/20 06:00:56;;;;;;;;;;;;;;;0.98;100.00;92700.69;5093366;28;19928;-83
2021/12/20 06:03:23;;;;;;;;;;;;;;;1.00;100.00;92704.66;5093314;28;20400;-83
2021/12/20 06:05:49;;;;;;;;;;;;;;;0.91;100.00;92706.41;5092183;28;19931;-86
2021/12/20 06:08:16;;;;;;;;;;;;;;;0.83;100.00;92700.59;5093266;28;19931;-84
2021/12/20 06:10:42;;;;;;;;;;;;;;;0.86;100.00;92703.59;5093215;28;20271;-84
2021/12/20 06:13:09;;;;;;;;;;;;;;;0.96;100.00;92712.72;5093073;28;19931;-84
2021/12/20 06:15:35;;;;;;;;;;;;;;;0.97;100.00;92706.72;5093091;28;19939;-84
2021/12/20 06:18:03;;;;;;;;;;;;;;;0.85;100.00;92712.13;5092911;28;19924;-85
2021/12/20 06:20:30;;;;;;;;;;;;;;;0.90;100.00;92709.91;5093205;28;19924;-84
2021/12/20 06:22:57;;;;;;;;;;;;;;;0.91;100.00;92710.66;5092985;28;19928;-84
2021/12/20 06:25:25;;;;;;;;;;;;;;;0.96;100.00;92715.25;5092749;28;19931;-85
2021/12/20 06:27:52;;;;;;;;;;;;;;;0.97;100.00;92726.94;5092761;28;19954;-85
2021/12/20 06:30:18;;;;;;;;;;;;;;;0.99;100.00;92727.56;5092643;28;19928;-84
2021/12/20 06:32:45;;;;;;;;;;;;;;;1.06;100.00;92716.63;5092666;28;19924;-86
2021/12/20 06:35:13;;;;;;;;;;;;;;;1.17;100.00;92722.28;5093038;28;20298;-85
2021/12/20 06:37:40;;;;;;;;;;;;;;;1.23;100.00;92721.63;5092944;28;19932;-85
2021/12/20 06:40:07;;;;;;;;;;;;;;;1.19;100.00;92723.72;5092415;28;19924;-84
2021/12/20 06:42:37;;;;;;;;;;;;;;;1.30;100.00;92731.88;5092582;28;19932;-83
2021/12/20 06:45:05;;;;;;;;;;;;;;;1.25;100.00;92732.38;5092350;28;20398;-84
2021/12/20 06:47:31;;;;;;;;;;;;;;;1.18;100.00;92733.97;5092535;28;19977;-84
2021/12/20 06:49:58;;;;;;;;;;;;;;;1.21;100.00;92731.13;5092265;28;19928;-84
2021/12/20 06:52:26;;;;;;;;;;;;;;;1.26;100.00;92728.09;5092550;28;19924;-84
2021/12/20 06:54:52;;;;;;;;;;;;;;;1.35;100.00;92729.66;5092415;28;19924;-85
2021/12/20 06:57:20;;;;;;;;;;;;;;;1.39;100.00;92730.13;5092115;28;19935;-85
2021/12/20 06:59:46;;;;;;;;;;;;;;;1.37;100.00;92729.47;5092032;28;20356;-85
2021/12/20 07:02:13;;;;;;;;;;;;;;;1.45;100.00;92722.63;5092169;28;19935;-85
2021/12/20 07:04:39;;;;;;;;;;;;;;;1.55;100.00;92729.22;5092217;28;19931;-85
2021/12/20 07:07:06;;;;;;;;;;;;;;;1.58;100.00;92731.44;5092412;28;19928;-85
2021/12/20 07:09:34;;;;;;;;;;;;;;;1.65;100.00;92727.28;5091885;28;19974;-86
2021/12/20 07:12:03;;;;;;;;;;;;;;;1.75;100.00;92738.97;5092095;28;20298;-85
2021/12/20 07:14:30;;;;;;;;;;;;;;;1.79;100.00;92732.56;5091790;28;19928;-86
2021/12/20 07:16:56;;;;;;;;;;;;;;;1.82;100.00;92732.25;5092197;28;19985;-85
2021/12/20 07:19:23;;;;;;;;;;;;;;;1.83;100.00;92737.16;5091829;28;20305;-85
2021/12/20 07:21:49;;;;;;;;;;;;;;;1.83;100.00;92738.91;5091897;28;19935;-86
2021/12/20 07:24:16;;;;;;;;;;;;;;;1.89;100.00;92735.69;5091786;28;19932;-86
2021/12/20 07:26:44;;;;;;;;;;;;;;;1.94;100.00;92735.97;5091566;28;20382;-87
2021/12/20 07:31:55;;;;;;;;;;;;;;;1.97;100.00;92740.72;5091759;28;19946;-86
2021/12/20 07:34:21;;;;;;;;;;;;;;;1.99;100.00;92746.38;5091593;28;19924;-87
2021/12/20 07:36:48;;;;;;;;;;;;;;;2.05;100.00;92741.59;5091672;28;19934;-87
2021/12/20 07:39:14;;;;;;;;;;;;;;;2.05;100.00;92739.06;5091495;28;19970;-87
2021/12/20 07:41:41;;;;;;;;;;;;;;;2.00;100.00;92740.38;5091475;28;19931;-87
2021/12/20 07:44:09;;;;;;;;;;;;;;;2.02;100.00;92749.53;5091443;28;20297;-87
2021/12/20 07:46:36;;;;;;;;;;;;;;;2.00;100.00;92747.19;5091512;28;19931;-88
2021/12/20 07:49:02;;;;;;;;;;;;;;;1.92;100.00;92740.44;5091872;28;20311;-86
2021/12/20 07:51:29;;;;;;;;;;;;;;;1.90;100.00;92744.84;5091485;28;19924;-87
2021/12/20 07:53:57;;;;;;;;;;;;;;;1.89;100.00;92753.41;5091674;28;19928;-87
2021/12/20 07:56:25;;;;;;;;;;;;;;;1.93;100.00;92753.88;5091445;28;19928;-88
2021/12/20 07:58:52;;;;;;;;;;;;;;;1.84;100.00;92741.25;5091205;28;19982;-87
2021/12/20 08:01:19;;;;;;;;;;;;;;;1.80;100.00;92745.06;5091164;28;19935;-88
2021/12/20 08:03:46;;;;;;;;;;;;;;;1.78;100.00;92758.88;5091175;28;19925;-88
2021/12/20 08:06:13;;;;;;;;;;;;;;;1.78;100.00;92763.94;5091246;28;19928;-87
2021/12/20 08:08:40;;;;;;;;;;;;;;;1.83;100.00;92752.34;5091059;28;20296;-87
2021/12/20 08:11:07;;;;;;;;;;;;;;;1.85;100.00;92747.91;5091091;28;19929;-88
2021/12/20 08:13:33;;;;;;;;;;;;;;;1.86;100.00;92751.22;5091285;28;19931;-88
2021/12/20 08:16:00;;;;;;;;;;;;;;;1.89;100.00;92750.13;5091101;28;20306;-88
2021/12/20 08:18:28;;;;;;;;;;;;;;;1.96;100.00;92756.06;5091028;28;19924;-88
2021/12/20 08:20:55;;;;;;;;;;;;;;;2.03;100.00;92761.25;5090843;28;19924;-89
2021/12/20 08:23:22;;;;;;;;;;;;;;;2.07;100.00;92759.94;5090990;28;19928;-89
2021/12/20 08:25:48;;;;;;;;;;;;;;;1.57;100.00;92771.16;5091191;28;19931;-88
2021/12/20 08:28:15;;;;;;;;;;;;;;;1.40;100.00;92772.19;5092869;28;20031;-88
2021/12/20 08:30:42;;;;;;;;;;;;;;;1.06;100.00;92784.13;5095028;28;19924;-88
2021/12/20 08:33:08;;;;;;;;;;;;;;;1.16;100.00;92768.78;5094890;28;19928;-89
2021/12/20 08:35:36;;;;;;;;;;;;;;;1.30;100.00;92773.16;5094799;28;20025;-89
2021/12/20 08:38:03;;;;;;;;;;;;;;;1.29;100.00;92786.00;5094878;28;19924;-91
2021/12/20 08:40:29;;;;;;;;;;;;;;;1.22;100.00;92773.19;5094852;28;19962;-89
2021/12/20 08:42:56;;;;;;;;;;;;;;;1.37;100.00;92769.97;5094913;28;20283;-90
2021/12/20 08:45:22;;;;;;;;;;;;;;;1.55;100.00;92768.00;5094909;28;19924;-89
2021/12/20 08:47:49;;;;;;;;;;;;;;;1.68;100.00;92769.22;5094622;28;20374;-89
2021/12/20 08:50:16;;;;;;;;;;;;;;;1.81;100.00;92774.50;5094471;28;19924;-89
2021/12/20 08:52:44;;;;;;;;;;;;;;;1.73;100.00;92772.81;5094874;28;19932;-90
2021/12/20 08:55:11;;;;;;;;;;;;;;;1.69;100.00;92770.78;5095348;28;19924;-92
2021/12/20 08:57:39;;;;;;;;;;;;;;;1.68;100.00;92757.34;5104148;28;19928;-92
2021/12/20 09:00:07;;;;;;;;;;;;;;;1.68;100.00;92759.09;5104172;28;19931;-92
2021/12/20 09:02:36;;;;;;;;;;;;;;;1.71;100.00;92754.47;5095474;28;19908;-91
2021/12/20 09:05:03;;;;;;;;;;;;;;;1.53;100.00;92764.84;5094681;28;19928;-86
2021/12/20 09:07:29;;;;;;;;;;;;;;;1.64;100.00;92758.63;5092294;28;19947;-88
2021/12/20 09:09:57;;;;;;;;;;;;;;;1.64;100.00;92761.16;5094174;28;19928;-92
2021/12/20 09:12:24;;;;;;;;;;;;;;;1.50;100.00;92757.59;5098031;28;19928;-94
2021/12/20 09:14:50;;;;;;;;;;;;;;;1.47;100.00;92745.25;5095843;28;19970;-88
2021/12/20 09:17:18;;;;;;;;;;;;;;;1.59;100.00;92753.28;5095730;28;19928;-96
2021/12/20 09:19:44;;;;;;;;;;;;;;;1.65;100.00;92744.22;5095933;28;19924;-91
2021/12/20 09:22:11;;;;;;;;;;;;;;;1.73;100.00;92744.19;5097132;28;19943;-93
2021/12/20 09:24:39;;;;;;;;;;;;;;;1.86;100.00;92736.81;5097188;28;19931;-88
2021/12/20 09:27:07;;;;;;;;;;;;;;;1.69;100.00;92738.66;5094983;28;19930;-94
2021/12/20 09:29:34;;;;;;;;;;;;;;;1.79;100.00;92742.72;5094617;28;19970;-88
2021/12/20 09:32:01;;;;;;;;;;;;;;;1.75;100.00;92744.03;5095240;28;19928;-90
2021/12/20 09:34:28;;;;;;;;;;;;;;;1.51;100.00;92751.56;5094134;28;19924;-93
2021/12/20 09:36:55;;;;;;;;;;;;;;;1.36;100.00;92722.84;5094349;28;20324;-88
2021/12/20 09:39:22;;;;;;;;;;;;;;;1.53;100.00;92746.34;5093012;28;19928;-91
2021/12/20 09:42:01;;;;;;;;;;;;;;;1.44;100.00;92746.38;5093687;28;19924;-86
2021/12/20 09:44:29;;;;;;;;;;;;;;;1.64;100.00;92740.91;5094056;28;19928;-87
2021/12/20 09:46:56;;;;;;;;;;;;;;;1.71;100.00;92741.03;5090220;28;20754;-87
2021/12/20 09:49:23;;;;;;;;;;;;;;;1.64;100.00;92735.84;5093893;28;19924;-88
2021/12/20 09:51:50;;;;;;;;;;;;;;;1.64;100.00;92740.09;5093726;28;19931;-86
2021/12/20 09:54:17;;;;;;;;;;;;;;;1.39;100.00;92746.06;5093735;28;19928;-83
2021/12/20 09:56:44;;;;;;;;;;;;;;;1.39;100.00;92738.47;5093682;28;19924;-89
2021/12/20 09:59:12;;;;;;;;;;;;;;;1.41;100.00;92746.72;5093489;28;19928;-90
2021/12/20 10:01:40;;;;;;;;;;;;;;;1.44;100.00;92738.00;5093712;28;19928;-88
2021/12/20 10:04:07;;;;;;;;;;;;;;;1.39;100.00;92735.16;5093190;28;20290;-86
2021/12/20 10:06:33;;;;;;;;;;;;;;;1.33;100.00;92739.94;5093344;28;20291;-92
2021/12/20 10:09:10;;;;;;;;;;;;;;;1.38;100.00;92748.78;5093206;28;19981;-88
2021/12/20 10:11:37;;;;;;;;;;;;;;;1.40;100.00;92740.06;5095545;28;19969;-93
2021/12/20 10:14:05;;;;;;;;;;;;;;;1.42;100.00;92724.72;5093315;28;19959;-95
2021/12/20 10:16:31;;;;;;;;;;;;;;;1.35;100.00;92731.38;5094496;28;19928;-93
2021/12/20 10:19:00;;;;;;;;;;;;;;;1.48;100.00;92741.75;5094456;28;19924;-95
2021/12/20 10:21:34;;;;;;;;;;;;;;;1.55;100.00;92740.16;5096256;28;19924;-94
2021/12/20 10:24:01;;;;;;;;;;;;;;;1.63;100.00;92726.69;5093639;28;19924;-95
2021/12/20 10:26:27;;;;;;;;;;;;;;;1.53;100.00;92733.69;5093382;28;19924;-92
2021/12/20 10:28:54;;;;;;;;;;;;;;;1.65;100.00;92736.63;5093157;28;19924;-88
2021/12/20 10:31:21;;;;;;;;;;;;;;;1.72;100.00;92729.94;5093476;28;20362;-84
2021/12/20 10:33:52;;;;;;;;;;;;;;;1.68;100.00;92734.56;5094787;28;20443;-88
2021/12/20 10:36:20;;;;;;;;;;;;;;;1.75;100.00;92744.78;5093523;28;19986;-88
2021/12/20 10:38:47;;;;;;;;;;;;;;;1.53;100.00;92747.13;5094207;28;19924;-92
2021/12/20 10:41:17;;;;;;;;;;;;;;;1.43;100.00;92744.03;5094370;28;19981;-93
2021/12/20 10:43:49;;;;;;;;;;;;;;;1.33;100.00;92746.72;5093782;28;20011;-86
2021/12/20 10:46:17;;;;;;;;;;;;;;;1.33;100.00;92745.00;5093137;28;19924;-91
2021/12/20 10:48:45;;;;;;;;;;;;;;;1.16;100.00;92738.44;5093201;28;20344;-88
2021/12/20 10:51:21;;;;;;;;;;;;;;;1.18;100.00;92744.09;5092185;28;19932;-92
2021/12/20 10:53:50;;;;;;;;;;;;;;;1.27;100.00;92744.84;5092553;28;19971;-90
2021/12/20 10:56:19;;;;;;;;;;;;;;;1.31;100.00;92741.06;5092231;28;20377;-90
2021/12/20 10:58:45;;;;;;;;;;;;;;;1.19;100.00;92738.88;5092178;28;19932;-89
2021/12/20 11:01:17;;;;;;;;;;;;;;;1.18;100.00;92755.03;5092042;28;19924;-89
2021/12/20 11:03:45;;;;;;;;;;;;;;;1.13;100.00;92747.13;5091985;28;19940;-91
2021/12/20 11:06:36;;;;;;;;;;;;;;;1.18;100.00;92737.31;5092025;28;20390;-93
2021/12/20 11:09:10;;;;;;;;;;;;;;;1.18;100.00;92744.91;5091265;28;19924;-90
2021/12/20 11:11:39;;;;;;;;;;;;;;;1.17;100.00;92755.19;5091894;28;19928;-90
2021/12/20 11:14:06;;;;;;;;;;;;;;;1.14;100.00;92750.44;5091808;28;20026;-91
2021/12/20 11:16:35;;;;;;;;;;;;;;;1.12;100.00;92742.22;5091895;28;20278;-89
2021/12/20 11:19:18;;;;;;;;;;;;;;;1.30;100.00;92737.72;5091986;28;19928;-90
2021/12/20 11:21:47;;;;;;;;;;;;;;;1.29;100.00;92740.44;5091852;28;19943;-88
2021/12/20 11:24:15;;;;;;;;;;;;;;;1.37;100.00;92740.41;5091778;28;19924;-89
2021/12/20 11:26:42;;;;;;;;;;;;;;;1.32;100.00;92740.09;5091920;28;20381;-89
2021/12/20 11:29:11;;;;;;;;;;;;;;;1.14;100.00;92745.38;5091850;28;19928;-88
2021/12/20 11:31:38;;;;;;;;;;;;;;;1.15;100.00;92747.75;5091303;28;20415;-89
2021/12/20 11:34:05;;;;;;;;;;;;;;;1.01;100.00;92740.81;5091659;28;19924;-88
2021/12/20 11:36:32;;;;;;;;;;;;;;;0.96;100.00;92750.66;5091451;28;19969;-89
2021/12/20 11:51:11;;;;;;;10.25;6.82;;;;;;;-0.17;100.00;92662.81;5148073;27;20388;-86
2021/12/20 11:53:40;;;;;;;7.07;5.28;;;;;;;-0.06;100.00;92664.22;5127689;28;20043;-86
2021/12/20 11:56:08;;;;;;;7.45;5.15;;;;;;;0.19;100.00;92700.38;5127793;28;20395;-86
2021/12/20 11:58:37;;;;;;;8.05;4.85;;;;;;;0.69;100.00;92727.34;5127733;28;20721;-86
2021/12/20 12:01:14;;;;;;;7.57;5.53;;;;;;;1.07;100.00;92742.72;5107833;28;20047;-86
2021/12/20 12:03:51;;;;;;;7.35;4.97;;;;;;;0.86;100.00;92703.59;5107187;28;20506;-86
2021/12/20 12:06:25;;;;;;;15.50;9.50;;;;;;;1.20;100.00;92737.13;5106815;28;20044;-86
2021/12/20 12:08:59;;;;;;;8.27;6.03;;;;;;;1.18;100.00;92749.97;5106789;28;20584;-86
2021/12/20 12:11:37;;;;;;;10.45;6.63;;;;;;;0.78;100.00;92679.09;5106801;28;20047;-88
2021/12/20 12:14:33;;;;;;;11.55;6.53;;;;;;;1.43;100.00;92737.19;5106264;28;20429;-89
2021/12/20 12:17:05;;;;;;;12.80;7.07;;;;;;;1.68;100.00;92749.75;5106357;28;20043;-88
2021/12/20 12:19:42;;;;;;;8.27;5.43;;;;;;;1.75;100.00;92733.88;5106613;28;20118;-88
2021/12/20 12:22:37;;;;;;;8.27;5.72;;;;;;;1.75;100.00;92733.88;5106693;28;20162;-88
2021/12/20 12:25:08;;;;;;;7.18;4.45;;;;;;;1.46;100.00;92747.00;5106503;28;20043;-87
2021/12/20 12:27:38;;;;;;;13.13;5.28;;;;;;;1.16;100.00;92675.19;5106351;28;20134;-89
2021/12/20 12:30:30;;;;;;;10.65;5.53;;;;;;;1.74;100.00;92745.75;5106209;28;20548;-88
2021/12/20 12:33:22;;;;;;;18.90;6.53;;;;;;;1.72;100.00;92750.19;5106395;28;20043;-86
2021/12/20 12:36:07;;;;;;;6.30;4.22;;;;;;;0.96;100.00;92667.97;5106267;28;20043;-86
2021/12/20 12:38:52;;;;;;;20.42;10.55;;;;;;;1.22;100.00;92681.31;5106367;28;20059;-87
2021/12/20 12:41:25;;;;;;;9.32;5.25;;;;;;;1.26;100.00;92710.41;5106187;28;20048;-86
2021/12/20 12:44:08;;;;;;;11.85;6.32;;;;;;;1.33;100.00;92734.88;5105999;28;20399;-86
2021/12/20 12:47:00;;;;;;;12.23;6.80;;;;;;;1.39;100.00;92741.00;5106236;28;20442;-87
2021/12/20 12:49:42;;;;;;;12.02;5.85;;;;;;;1.09;100.00;92697.00;5105587;28;20149;-87
2021/12/20 12:52:29;;;;;;;7.40;5.78;;;;;;;1.45;100.00;92752.22;5105798;28;20506;-86
2021/12/20 12:55:03;;;;;;;9.80;4.88;;;;;;;0.79;100.00;92695.06;5089592;28;20044;-86
2021/12/20 12:57:35;;;;;;;8.75;4.50;;;;;;;0.54;100.00;92702.69;5106142;28;20108;-87
2021/12/20 13:00:12;;;;;;;6.45;4.15;;;;;;;0.55;100.00;92711.09;5106025;28;20147;-86
2021/12/20 13:02:41;;;;;;;9.98;5.90;;;;;;;0.58;100.00;92758.78;5091814;28;20372;-85
2021/12/20 13:05:14;;;;;;;12.73;5.97;;;;;;;0.22;100.00;92722.78;5092476;28;20048;-85
2021/12/20 13:07:48;;;;;;;12.38;8.20;;;;;;;0.29;100.00;92739.84;5092246;28;20068;-86
2021/12/20 13:10:20;;;;;;;15.77;9.32;;;;;;;0.62;100.00;92808.88;5091773;28;20044;-85